Time;durP1;ratioP1;P1;durP2;ratioP2;P2;SDS_P1;SDS_P2;PMS_P1;PMS_P2;Temp;Humidity;BMP_temperature;BMP_pressure;BME280_temperature;BME280_humidity;BME280_pressure;Samples;Min_cycle;Max_cycle;Signal;HPM_P1;HPM_P2
2023/04/09 00:01:06;;;;;;;44.50;19.20;;;;;;;-128.00;-1.00;-1.00;18489;294;7506009;-30
2023/04/09 00:03:31;;;;;;;52.80;21.60;;;;;;;-128.00;-1.00;-1.00;18516;294;7504476;-34
2023/04/09 00:05:57;;;;;;;47.30;24.10;;;;;;;-128.00;-1.00;-1.00;18491;335;7504016;-34
2023/04/09 00:08:23;;;;;;;45.70;23.00;;;;;;;-128.00;-1.00;-1.00;18896;339;7504386;-32
2023/04/09 00:10:50;;;;;;;33.70;17.10;;;;;;;-128.00;-1.00;-1.00;18873;294;7504698;-30
2023/04/09 00:13:16;;;;;;;50.10;22.60;;;;;;;-128.00;-1.00;-1.00;18490;294;7506213;-34
2023/04/09 00:15:43;;;;;;;44.20;20.80;;;;;;;-128.00;-1.00;-1.00;18459;322;7504550;-31
2023/04/09 00:18:08;;;;;;;44.30;18.90;;;;;;;-128.00;-1.00;-1.00;18475;294;7504875;-34
2023/04/09 00:20:34;;;;;;;49.30;21.10;;;;;;;-128.00;-1.00;-1.00;18882;340;7504723;-32
2023/04/09 00:23:00;;;;;;;65.50;27.00;;;;;;;-128.00;-1.00;-1.00;18897;302;7504581;-34
2023/04/09 00:25:27;;;;;;;59.00;25.00;;;;;;;-128.00;-1.00;-1.00;18895;294;7504926;-33
2023/04/09 00:27:54;;;;;;;71.10;23.40;;;;;;;-128.00;-1.00;-1.00;18496;306;7506072;-34
2023/04/09 00:30:20;;;;;;;58.50;24.40;;;;;;;-128.00;-1.00;-1.00;18516;286;7506727;-32
2023/04/09 00:32:46;;;;;;;67.10;28.10;;;;;;;-128.00;-1.00;-1.00;18480;336;7506029;-34
2023/04/09 00:35:11;;;;;;;66.80;27.00;;;;;;;-128.00;-1.00;-1.00;18462;294;7505748;-34
2023/04/09 00:37:37;;;;;;;51.00;25.10;;;;;;;-128.00;-1.00;-1.00;18468;295;7507241;-33
2023/04/09 00:40:04;;;;;;;54.70;25.00;;;;;;;-128.00;-1.00;-1.00;18452;294;7504966;-34
2023/04/09 00:42:33;;;;;;;57.30;24.70;;;;;;;-128.00;-1.00;-1.00;18479;294;7504979;-34
2023/04/09 00:44:59;;;;;;;37.90;19.10;;;;;;;-128.00;-1.00;-1.00;18476;294;7506677;-34
2023/04/09 00:47:27;;;;;;;39.20;19.00;;;;;;;-128.00;-1.00;-1.00;18494;335;7505339;-31
2023/04/09 00:49:53;;;;;;;44.80;21.80;;;;;;;-128.00;-1.00;-1.00;18471;294;7506194;-34
2023/04/09 00:52:20;;;;;;;46.60;17.20;;;;;;;-128.00;-1.00;-1.00;18482;310;7505888;-31
2023/04/09 00:54:47;;;;;;;38.10;21.40;;;;;;;-128.00;-1.00;-1.00;18468;294;7504401;-34
2023/04/09 00:57:12;;;;;;;33.60;18.10;;;;;;;-128.00;-1.00;-1.00;18468;294;7504936;-31
2023/04/09 00:59:38;;;;;;;51.60;24.10;;;;;;;-128.00;-1.00;-1.00;18908;294;7504545;-34
2023/04/09 01:02:05;;;;;;;58.60;26.30;;;;;;;-128.00;-1.00;-1.00;18898;295;7505361;-31
2023/04/09 01:04:31;;;;;;;58.40;28.20;;;;;;;-128.00;-1.00;-1.00;18884;294;7505414;-30
2023/04/09 01:07:21;;;;;;;49.20;25.20;;;;;;;-128.00;-1.00;-1.00;18885;294;7504370;-31
2023/04/09 01:09:53;;;;;;;56.20;26.20;;;;;;;-128.00;-1.00;-1.00;18501;294;7504370;-35
2023/04/09 01:12:36;;;;;;;45.80;22.30;;;;;;;-128.00;-1.00;-1.00;18494;330;7504538;-31
2023/04/09 01:15:05;;;;;;;43.60;23.70;;;;;;;-128.00;-1.00;-1.00;18501;294;7504446;-35
2023/04/09 01:17:40;;;;;;;47.80;23.30;;;;;;;-128.00;-1.00;-1.00;18482;294;7504557;-35
2023/04/09 01:20:09;;;;;;;39.80;19.20;;;;;;;-128.00;-1.00;-1.00;18503;295;7504324;-31
2023/04/09 01:22:48;;;;;;;43.00;22.40;;;;;;;-128.00;-1.00;-1.00;18468;294;7505773;-34
2023/04/09 01:25:36;;;;;;;48.00;24.40;;;;;;;-128.00;-1.00;-1.00;18454;283;7506073;-30
2023/04/09 01:28:21;;;;;;;53.40;25.50;;;;;;;-128.00;-1.00;-1.00;18462;294;7507332;-30
2023/04/09 01:30:48;;;;;;;42.80;20.10;;;;;;;-128.00;-1.00;-1.00;18511;294;7504335;-29
2023/04/09 01:33:15;;;;;;;51.30;21.60;;;;;;;-128.00;-1.00;-1.00;18506;294;7506402;-31
2023/04/09 01:35:45;;;;;;;38.90;20.30;;;;;;;-128.00;-1.00;-1.00;18463;314;7506771;-33
2023/04/09 01:38:11;;;;;;;30.90;17.20;;;;;;;-128.00;-1.00;-1.00;18488;297;7505757;-30
2023/04/09 01:40:37;;;;;;;32.40;17.80;;;;;;;-128.00;-1.00;-1.00;18507;294;7504698;-34
2023/04/09 01:43:03;;;;;;;52.00;26.50;;;;;;;-128.00;-1.00;-1.00;18901;294;7504804;-31
2023/04/09 01:45:30;;;;;;;66.00;31.10;;;;;;;-128.00;-1.00;-1.00;18876;319;7505472;-33
2023/04/09 01:47:56;;;;;;;50.20;24.50;;;;;;;-128.00;-1.00;-1.00;18899;294;7504701;-34
2023/04/09 01:50:22;;;;;;;44.50;22.20;;;;;;;-128.00;-1.00;-1.00;18451;306;7504712;-30
2023/04/09 01:52:48;;;;;;;45.30;23.10;;;;;;;-128.00;-1.00;-1.00;18489;294;7504110;-30
2023/04/09 01:55:13;;;;;;;45.90;22.00;;;;;;;-128.00;-1.00;-1.00;18475;288;7504334;-29
2023/04/09 01:57:40;;;;;;;37.60;20.40;;;;;;;-128.00;-1.00;-1.00;18464;346;7506182;-30
2023/04/09 02:00:08;;;;;;;45.10;24.20;;;;;;;-128.00;-1.00;-1.00;18876;330;7504987;-30
2023/04/09 02:02:40;;;;;;;53.50;25.20;;;;;;;-128.00;-1.00;-1.00;18495;346;7506181;-34
2023/04/09 02:05:07;;;;;;;32.70;15.10;;;;;;;-128.00;-1.00;-1.00;18467;294;7504764;-34
2023/04/09 02:07:38;;;;;;;36.40;20.20;;;;;;;-128.00;-1.00;-1.00;18466;294;7504232;-34
2023/04/09 02:10:05;;;;;;;32.40;21.30;;;;;;;-128.00;-1.00;-1.00;18470;294;7504985;-31
2023/04/09 02:12:30;;;;;;;51.90;25.90;;;;;;;-128.00;-1.00;-1.00;18487;296;7504572;-31
2023/04/09 02:14:56;;;;;;;30.30;14.80;;;;;;;-128.00;-1.00;-1.00;18503;294;7504607;-34
2023/04/09 02:17:22;;;;;;;24.10;14.80;;;;;;;-128.00;-1.00;-1.00;18473;295;7504911;-31
2023/04/09 02:19:49;;;;;;;30.80;17.50;;;;;;;-128.00;-1.00;-1.00;18466;283;7504100;-31
2023/04/09 02:22:15;;;;;;;48.20;21.90;;;;;;;-128.00;-1.00;-1.00;18501;346;7505043;-34
2023/04/09 02:24:41;;;;;;;37.40;19.90;;;;;;;-128.00;-1.00;-1.00;18498;294;7504495;-34
2023/04/09 02:27:07;;;;;;;34.80;18.80;;;;;;;-128.00;-1.00;-1.00;18490;347;7504632;-31
2023/04/09 02:29:33;;;;;;;37.40;19.80;;;;;;;-128.00;-1.00;-1.00;18455;294;7504857;-31
2023/04/09 02:31:59;;;;;;;37.90;22.50;;;;;;;-128.00;-1.00;-1.00;18900;294;7505439;-36
2023/04/09 02:34:25;;;;;;;38.90;19.30;;;;;;;-128.00;-1.00;-1.00;18881;294;7504798;-34
2023/04/09 02:36:51;;;;;;;52.00;24.10;;;;;;;-128.00;-1.00;-1.00;18866;294;7504730;-34
2023/04/09 02:39:17;;;;;;;38.00;21.20;;;;;;;-128.00;-1.00;-1.00;18887;295;7504593;-34
2023/04/09 02:41:43;;;;;;;32.70;18.40;;;;;;;-128.00;-1.00;-1.00;18895;294;7504670;-30
2023/04/09 02:44:10;;;;;;;47.30;22.90;;;;;;;-128.00;-1.00;-1.00;18894;339;7504918;-32
2023/04/09 02:46:37;;;;;;;36.20;20.00;;;;;;;-128.00;-1.00;-1.00;18908;294;7505614;-34
2023/04/09 02:49:03;;;;;;;44.80;21.70;;;;;;;-128.00;-1.00;-1.00;18511;307;7504934;-30
2023/04/09 02:51:29;;;;;;;37.20;20.40;;;;;;;-128.00;-1.00;-1.00;18501;336;7504436;-36
2023/04/09 02:53:55;;;;;;;37.20;18.40;;;;;;;-128.00;-1.00;-1.00;18468;294;7505006;-33
2023/04/09 02:56:22;;;;;;;39.00;22.80;;;;;;;-128.00;-1.00;-1.00;18881;295;7505344;-33
2023/04/09 02:58:52;;;;;;;45.40;22.80;;;;;;;-128.00;-1.00;-1.00;18857;294;7505456;-30
2023/04/09 03:01:19;;;;;;;31.40;16.70;;;;;;;-128.00;-1.00;-1.00;18454;294;7505650;-34
2023/04/09 03:03:45;;;;;;;43.40;21.80;;;;;;;-128.00;-1.00;-1.00;18476;283;7506554;-33
2023/04/09 03:06:10;;;;;;;33.50;17.60;;;;;;;-128.00;-1.00;-1.00;18438;347;7506251;-30
2023/04/09 03:08:37;;;;;;;52.00;23.90;;;;;;;-128.00;-1.00;-1.00;18876;294;7505562;-34
2023/04/09 03:11:03;;;;;;;43.60;20.10;;;;;;;-128.00;-1.00;-1.00;18929;294;7505260;-30
2023/04/09 03:13:29;;;;;;;47.40;23.50;;;;;;;-128.00;-1.00;-1.00;18868;294;7504629;-34
2023/04/09 03:15:55;;;;;;;39.90;20.50;;;;;;;-128.00;-1.00;-1.00;18901;294;7504728;-34
2023/04/09 03:18:21;;;;;;;34.80;19.70;;;;;;;-128.00;-1.00;-1.00;18899;295;7505121;-35
2023/04/09 03:20:47;;;;;;;44.80;19.70;;;;;;;-128.00;-1.00;-1.00;18864;287;7507389;-34
2023/04/09 03:23:13;;;;;;;37.10;20.70;;;;;;;-128.00;-1.00;-1.00;18892;295;7505479;-35
2023/04/09 03:25:39;;;;;;;43.20;19.70;;;;;;;-128.00;-1.00;-1.00;18881;294;7504763;-31
2023/04/09 03:28:05;;;;;;;44.60;20.60;;;;;;;-128.00;-1.00;-1.00;18887;294;7504326;-36
2023/04/09 03:30:32;;;;;;;34.40;20.10;;;;;;;-128.00;-1.00;-1.00;18903;294;7504398;-34
2023/04/09 03:32:58;;;;;;;31.80;18.10;;;;;;;-128.00;-1.00;-1.00;18863;294;7504685;-34
2023/04/09 03:35:25;;;;;;;31.30;16.80;;;;;;;-128.00;-1.00;-1.00;18876;314;7504287;-36
2023/04/09 03:37:51;;;;;;;38.30;19.30;;;;;;;-128.00;-1.00;-1.00;18874;295;7504542;-34
2023/04/09 03:40:17;;;;;;;35.60;19.30;;;;;;;-128.00;-1.00;-1.00;18881;347;7505821;-31
2023/04/09 03:42:43;;;;;;;32.50;17.00;;;;;;;-128.00;-1.00;-1.00;18887;294;7504529;-31
2023/04/09 03:45:09;;;;;;;28.80;15.10;;;;;;;-128.00;-1.00;-1.00;18864;294;7504684;-31
2023/04/09 03:47:36;;;;;;;32.90;15.20;;;;;;;-128.00;-1.00;-1.00;18885;294;7504838;-29
2023/04/09 03:50:02;;;;;;;33.90;16.70;;;;;;;-128.00;-1.00;-1.00;18879;294;7504894;-31
2023/04/09 03:52:29;;;;;;;38.80;18.10;;;;;;;-128.00;-1.00;-1.00;18878;294;7504383;-31
2023/04/09 03:54:55;;;;;;;30.80;12.60;;;;;;;-128.00;-1.00;-1.00;18468;307;7506251;-33
2023/04/09 03:57:21;;;;;;;32.80;15.90;;;;;;;-128.00;-1.00;-1.00;18873;294;7504722;-31
2023/04/09 03:59:48;;;;;;;32.20;15.60;;;;;;;-128.00;-1.00;-1.00;18887;307;7504787;-32
2023/04/09 04:02:14;;;;;;;28.60;15.60;;;;;;;-128.00;-1.00;-1.00;18915;294;7503962;-36
2023/04/09 04:04:40;;;;;;;33.00;16.50;;;;;;;-128.00;-1.00;-1.00;18899;288;7505427;-31
2023/04/09 04:07:07;;;;;;;30.10;16.50;;;;;;;-128.00;-1.00;-1.00;18882;294;7504407;-30
2023/04/09 04:09:33;;;;;;;32.40;15.90;;;;;;;-128.00;-1.00;-1.00;18506;294;7505200;-31
2023/04/09 04:12:00;;;;;;;34.80;16.80;;;;;;;-128.00;-1.00;-1.00;18896;294;7504388;-35
2023/04/09 04:14:26;;;;;;;22.80;14.00;;;;;;;-128.00;-1.00;-1.00;18497;294;7506027;-35
2023/04/09 04:16:52;;;;;;;26.60;12.90;;;;;;;-128.00;-1.00;-1.00;18471;283;7505070;-32
2023/04/09 04:19:17;;;;;;;21.10;12.00;;;;;;;-128.00;-1.00;-1.00;18464;339;7504299;-35
2023/04/09 04:21:44;;;;;;;28.80;14.90;;;;;;;-128.00;-1.00;-1.00;18895;294;7504301;-35
2023/04/09 04:24:10;;;;;;;22.70;12.70;;;;;;;-128.00;-1.00;-1.00;18914;294;7504516;-31
2023/04/09 04:26:36;;;;;;;22.60;12.60;;;;;;;-128.00;-1.00;-1.00;18900;294;7504561;-35
2023/04/09 04:29:02;;;;;;;24.90;13.50;;;;;;;-128.00;-1.00;-1.00;18875;318;7505113;-31
2023/04/09 04:31:28;;;;;;;19.90;10.80;;;;;;;-128.00;-1.00;-1.00;18869;294;7505076;-32
2023/04/09 04:33:54;;;;;;;21.70;12.20;;;;;;;-128.00;-1.00;-1.00;18924;295;7504648;-35
2023/04/09 04:36:21;;;;;;;20.80;11.80;;;;;;;-128.00;-1.00;-1.00;18907;337;7504332;-32
2023/04/09 05:16:37;;;;;;;30.70;16.00;;;;;;;-101.41;19.20;20024.23;19579;294;8045088;-31
2023/04/09 05:19:03;;;;;;;25.50;14.10;;;;;;;-128.00;-1.00;-1.00;18614;288;7506539;-35
2023/04/09 05:21:30;;;;;;;26.60;13.60;;;;;;;-128.00;-1.00;-1.00;18892;288;7506493;-32
2023/04/09 05:23:57;;;;;;;26.20;14.10;;;;;;;-128.00;-1.00;-1.00;18473;294;7505268;-36
2023/04/09 05:26:22;;;;;;;21.50;12.60;;;;;;;-128.00;-1.00;-1.00;18482;288;7504586;-32
2023/04/09 05:28:48;;;;;;;20.10;12.40;;;;;;;-128.00;-1.00;-1.00;18482;294;7505709;-32
2023/04/09 05:31:14;;;;;;;31.10;15.50;;;;;;;-128.00;-1.00;-1.00;18466;294;7506084;-32
2023/04/09 05:33:40;;;;;;;48.30;15.00;;;;;;;-128.00;-1.00;-1.00;18489;294;7505478;-36
2023/04/09 05:36:06;;;;;;;27.10;14.70;;;;;;;-128.00;-1.00;-1.00;18474;294;7506233;-32
2023/04/09 05:38:32;;;;;;;25.90;13.30;;;;;;;-128.00;-1.00;-1.00;18476;294;7506506;-36
2023/04/09 05:40:58;;;;;;;25.00;13.20;;;;;;;-128.00;-1.00;-1.00;18504;294;7504347;-32
2023/04/09 05:43:24;;;;;;;27.70;15.80;;;;;;;-128.00;-1.00;-1.00;18463;294;7504932;-32
2023/04/09 05:45:49;;;;;;;35.20;15.50;;;;;;;-128.00;-1.00;-1.00;18506;294;7504711;-32
2023/04/09 05:48:17;;;;;;;21.60;12.90;;;;;;;-128.00;-1.00;-1.00;18475;286;7506274;-35
2023/04/09 05:50:49;;;;;;;33.20;14.10;;;;;;;-128.00;-1.00;-1.00;18496;296;7504698;-32
2023/04/09 05:53:15;;;;;;;29.70;17.00;;;;;;;-128.00;-1.00;-1.00;18474;294;7506059;-32
2023/04/09 05:55:40;;;;;;;25.80;14.90;;;;;;;-128.00;-1.00;-1.00;18483;294;7504399;-35
2023/04/09 05:58:07;;;;;;;28.70;16.10;;;;;;;-128.00;-1.00;-1.00;18911;295;7505363;-31
2023/04/09 06:00:33;;;;;;;35.00;18.60;;;;;;;-128.00;-1.00;-1.00;18875;294;7504676;-37
2023/04/09 06:02:59;;;;;;;30.00;15.60;;;;;;;-128.00;-1.00;-1.00;18891;294;7504654;-32
2023/04/09 06:05:25;;;;;;;35.10;18.70;;;;;;;-128.00;-1.00;-1.00;18890;298;7504695;-36
2023/04/09 06:07:52;;;;;;;33.70;17.40;;;;;;;-128.00;-1.00;-1.00;18870;296;7504401;-35
2023/04/09 06:10:18;;;;;;;29.90;15.90;;;;;;;-128.00;-1.00;-1.00;18865;294;7504816;-35
2023/04/09 06:12:44;;;;;;;29.70;16.50;;;;;;;-128.00;-1.00;-1.00;18893;294;7504985;-33
2023/04/09 06:15:11;;;;;;;36.30;18.10;;;;;;;-128.00;-1.00;-1.00;18874;294;7504708;-32
2023/04/09 06:17:37;;;;;;;32.60;19.80;;;;;;;-128.00;-1.00;-1.00;18890;346;7505210;-36
2023/04/09 06:20:04;;;;;;;29.70;16.20;;;;;;;-128.00;-1.00;-1.00;18877;294;7504327;-36
2023/04/09 06:22:30;;;;;;;33.90;18.70;;;;;;;-128.00;-1.00;-1.00;18453;296;7505808;-35
2023/04/09 06:24:55;;;;;;;36.90;19.80;;;;;;;-128.00;-1.00;-1.00;18496;294;7504437;-35
2023/04/09 06:27:21;;;;;;;31.40;17.60;;;;;;;-128.00;-1.00;-1.00;18909;294;7504544;-34
2023/04/09 06:29:48;;;;;;;40.70;20.40;;;;;;;-128.00;-1.00;-1.00;18892;288;7504269;-36
2023/04/09 06:32:14;;;;;;;30.90;18.00;;;;;;;-128.00;-1.00;-1.00;18919;294;7504297;-32
2023/04/09 06:34:40;;;;;;;33.40;19.10;;;;;;;-128.00;-1.00;-1.00;18879;294;7505128;-33
2023/04/09 06:37:06;;;;;;;31.60;16.20;;;;;;;-128.00;-1.00;-1.00;18887;294;7504686;-35
2023/04/09 06:39:33;;;;;;;35.00;18.00;;;;;;;-128.00;-1.00;-1.00;18895;294;7504461;-36
2023/04/09 06:41:59;;;;;;;37.60;19.60;;;;;;;-128.00;-1.00;-1.00;18879;306;7504193;-33
2023/04/09 06:44:25;;;;;;;31.20;18.00;;;;;;;-128.00;-1.00;-1.00;18907;346;7504568;-36
2023/04/09 06:46:51;;;;;;;35.20;18.30;;;;;;;-128.00;-1.00;-1.00;18900;294;7504587;-36
2023/04/09 06:49:17;;;;;;;38.20;20.50;;;;;;;-128.00;-1.00;-1.00;18856;294;7504464;-32
2023/04/09 06:51:44;;;;;;;36.90;20.40;;;;;;;-128.00;-1.00;-1.00;18872;296;7504430;-34
2023/04/09 06:54:10;;;;;;;39.80;19.20;;;;;;;-128.00;-1.00;-1.00;18877;294;7504838;-32
2023/04/09 06:56:36;;;;;;;40.00;18.30;;;;;;;-128.00;-1.00;-1.00;18886;294;7505518;-32
2023/04/09 06:59:02;;;;;;;41.90;22.50;;;;;;;-128.00;-1.00;-1.00;18872;295;7504335;-36
2023/04/09 07:01:28;;;;;;;38.70;20.50;;;;;;;-128.00;-1.00;-1.00;18888;294;7504952;-32
2023/04/09 07:03:55;;;;;;;35.10;21.10;;;;;;;-128.00;-1.00;-1.00;18895;296;7504649;-34
2023/04/09 07:06:21;;;;;;;42.70;18.40;;;;;;;-128.00;-1.00;-1.00;18883;296;7504334;-31
2023/04/09 07:08:47;;;;;;;41.10;21.20;;;;;;;-128.00;-1.00;-1.00;18891;283;7504599;-36
2023/04/09 07:11:15;;;;;;;35.90;18.30;;;;;;;-128.00;-1.00;-1.00;18891;294;7504703;-32
2023/04/09 07:13:41;;;;;;;32.90;19.20;;;;;;;-128.00;-1.00;-1.00;18466;294;7506225;-31
2023/04/09 07:16:07;;;;;;;28.40;16.60;;;;;;;-128.00;-1.00;-1.00;18511;339;7504583;-32
2023/04/09 07:18:33;;;;;;;34.70;19.40;;;;;;;-128.00;-1.00;-1.00;18872;346;7505189;-33
2023/04/09 07:20:59;;;;;;;41.50;22.40;;;;;;;-128.00;-1.00;-1.00;18870;310;7504877;-36
2023/04/09 07:23:26;;;;;;;35.40;20.30;;;;;;;-128.00;-1.00;-1.00;18876;294;7504681;-32
2023/04/09 07:25:52;;;;;;;28.60;16.90;;;;;;;-128.00;-1.00;-1.00;18896;294;7506591;-32
2023/04/09 07:28:18;;;;;;;36.10;21.10;;;;;;;-128.00;-1.00;-1.00;18880;300;7504224;-32
2023/04/09 07:30:45;;;;;;;35.30;18.70;;;;;;;-128.00;-1.00;-1.00;18873;294;7504355;-37
2023/04/09 07:33:11;;;;;;;29.50;17.00;;;;;;;-128.00;-1.00;-1.00;18483;296;7506188;-32
2023/04/09 07:35:37;;;;;;;37.00;18.60;;;;;;;-128.00;-1.00;-1.00;18907;295;7504688;-33
2023/04/09 07:38:03;;;;;;;30.90;18.60;;;;;;;-128.00;-1.00;-1.00;18860;310;7504858;-32
2023/04/09 07:40:29;;;;;;;39.30;21.10;;;;;;;-128.00;-1.00;-1.00;18860;296;7506005;-37
2023/04/09 07:42:56;;;;;;;38.00;19.80;;;;;;;-128.00;-1.00;-1.00;18897;298;7504373;-33
2023/04/09 07:45:22;;;;;;;34.60;17.80;;;;;;;-128.00;-1.00;-1.00;18468;294;7506239;-36
2023/04/09 07:47:48;;;;;;;36.50;20.10;;;;;;;-128.00;-1.00;-1.00;18461;310;7506501;-36
2023/04/09 07:50:14;;;;;;;38.20;21.30;;;;;;;-128.00;-1.00;-1.00;18883;319;7504619;-33
2023/04/09 07:52:41;;;;;;;35.60;21.10;;;;;;;-128.00;-1.00;-1.00;18896;296;7504417;-33
2023/04/09 07:55:07;;;;;;;32.90;18.30;;;;;;;-128.00;-1.00;-1.00;18490;294;7504502;-37
2023/04/09 07:57:33;;;;;;;28.60;17.50;;;;;;;-128.00;-1.00;-1.00;18485;294;7504704;-33
2023/04/09 07:59:58;;;;;;;32.40;15.90;;;;;;;-128.00;-1.00;-1.00;18508;343;7506242;-36
2023/04/09 08:02:24;;;;;;;39.80;17.90;;;;;;;-128.00;-1.00;-1.00;18489;335;7505021;-32
2023/04/09 08:04:50;;;;;;;40.80;21.20;;;;;;;-128.00;-1.00;-1.00;18508;319;7505753;-32
2023/04/09 08:07:15;;;;;;;39.50;21.60;;;;;;;-128.00;-1.00;-1.00;18492;294;7504380;-32
2023/04/09 08:09:41;;;;;;;44.60;21.20;;;;;;;-128.00;-1.00;-1.00;18886;294;7505205;-33
2023/04/09 08:12:08;;;;;;;58.70;24.70;;;;;;;-128.00;-1.00;-1.00;18872;288;7504427;-36
2023/04/09 08:14:34;;;;;;;47.40;22.30;;;;;;;-128.00;-1.00;-1.00;18893;294;7504601;-37
2023/04/09 08:17:00;;;;;;;36.40;20.20;;;;;;;-128.00;-1.00;-1.00;18470;288;7504222;-38
2023/04/09 08:19:26;;;;;;;32.00;20.20;;;;;;;-128.00;-1.00;-1.00;18480;295;7505904;-33
2023/04/09 08:21:52;;;;;;;44.70;24.00;;;;;;;-128.00;-1.00;-1.00;18474;294;7504949;-31
2023/04/09 08:24:18;;;;;;;40.60;20.50;;;;;;;-128.00;-1.00;-1.00;18912;296;7503918;-36
2023/04/09 08:26:45;;;;;;;49.20;22.30;;;;;;;-128.00;-1.00;-1.00;18922;294;7504188;-32
2023/04/09 08:29:12;;;;;;;41.30;22.60;;;;;;;-128.00;-1.00;-1.00;18895;294;7505642;-37
2023/04/09 08:31:38;;;;;;;41.40;23.60;;;;;;;-128.00;-1.00;-1.00;18470;307;7505728;-35
2023/04/09 08:34:04;;;;;;;41.20;23.30;;;;;;;-128.00;-1.00;-1.00;18494;294;7504916;-34
2023/04/09 08:36:31;;;;;;;51.00;20.40;;;;;;;-128.00;-1.00;-1.00;18493;294;7504548;-31
2023/04/09 08:38:59;;;;;;;54.50;24.90;;;;;;;-128.00;-1.00;-1.00;18477;295;7504686;-31
2023/04/09 08:41:28;;;;;;;58.00;23.10;;;;;;;-128.00;-1.00;-1.00;18470;314;7504020;-32
2023/04/09 08:43:54;;;;;;;55.50;25.20;;;;;;;-128.00;-1.00;-1.00;18489;307;7506600;-33
2023/04/09 08:46:19;;;;;;;56.30;26.70;;;;;;;-128.00;-1.00;-1.00;18479;294;7506291;-33
2023/04/09 08:48:46;;;;;;;60.70;27.70;;;;;;;-128.00;-1.00;-1.00;18486;295;7504119;-32
2023/04/09 08:51:13;;;;;;;54.60;22.10;;;;;;;-128.00;-1.00;-1.00;18493;294;7504388;-35
2023/04/09 08:53:42;;;;;;;50.60;27.50;;;;;;;-128.00;-1.00;-1.00;18476;306;7504712;-35
2023/04/09 08:56:08;;;;;;;53.00;26.10;;;;;;;-128.00;-1.00;-1.00;18481;294;7504940;-30
2023/04/09 08:58:34;;;;;;;44.60;23.40;;;;;;;-128.00;-1.00;-1.00;18475;296;7504346;-32
2023/04/09 09:01:00;;;;;;;61.40;24.00;;;;;;;-128.00;-1.00;-1.00;18469;295;7506740;-36
2023/04/09 09:03:26;;;;;;;45.10;23.90;;;;;;;-128.00;-1.00;-1.00;18471;339;7505084;-36
2023/04/09 09:05:51;;;;;;;48.70;22.90;;;;;;;-128.00;-1.00;-1.00;18476;294;7504934;-30
2023/04/09 09:08:24;;;;;;;53.80;25.20;;;;;;;-128.00;-1.00;-1.00;18871;294;7504575;-36
2023/04/09 09:10:50;;;;;;;41.20;23.80;;;;;;;-128.00;-1.00;-1.00;18513;294;7505121;-33
2023/04/09 09:13:24;;;;;;;33.80;16.80;;;;;;;-128.00;-1.00;-1.00;18473;294;7505425;-33
2023/04/09 09:15:54;;;;;;;42.60;22.40;;;;;;;-128.00;-1.00;-1.00;18464;302;7504859;-36
2023/04/09 09:18:20;;;;;;;51.90;24.10;;;;;;;-128.00;-1.00;-1.00;18486;294;7504422;-31
2023/04/09 09:20:46;;;;;;;37.80;16.70;;;;;;;-128.00;-1.00;-1.00;18467;343;7506539;-31
2023/04/09 09:23:13;;;;;;;29.30;15.30;;;;;;;-128.00;-1.00;-1.00;18452;294;7504178;-36
2023/04/09 09:25:42;;;;;;;42.50;20.20;;;;;;;-128.00;-1.00;-1.00;18507;306;7506488;-36
2023/04/09 09:28:09;;;;;;;30.50;15.40;;;;;;;-128.00;-1.00;-1.00;18484;294;7506903;-32
2023/04/09 09:30:36;;;;;;;39.30;21.40;;;;;;;-128.00;-1.00;-1.00;18477;294;7505956;-36
2023/04/09 09:33:07;;;;;;;44.90;21.30;;;;;;;-128.00;-1.00;-1.00;18483;294;7504752;-36
2023/04/09 09:35:46;;;;;;;32.80;16.00;;;;;;;-128.00;-1.00;-1.00;18489;335;7506558;-36
2023/04/09 09:38:14;;;;;;;43.00;22.20;;;;;;;-128.00;-1.00;-1.00;18488;294;7504501;-35
2023/04/09 09:40:40;;;;;;;42.20;22.70;;;;;;;-128.00;-1.00;-1.00;18483;294;7506548;-37
2023/04/09 09:43:06;;;;;;;38.40;18.00;;;;;;;-128.00;-1.00;-1.00;18473;295;7505705;-37
2023/04/09 09:45:32;;;;;;;38.60;19.90;;;;;;;-128.00;-1.00;-1.00;18475;294;7504541;-32
2023/04/09 09:47:57;;;;;;;27.50;10.40;;;;;;;-128.00;-1.00;-1.00;18485;319;7505796;-37
2023/04/09 09:50:24;;;;;;;43.00;22.10;;;;;;;-128.00;-1.00;-1.00;18868;294;7504672;-37
2023/04/09 09:52:50;;;;;;;42.50;22.90;;;;;;;-128.00;-1.00;-1.00;18485;347;7504384;-34
2023/04/09 09:55:16;;;;;;;46.90;24.10;;;;;;;-128.00;-1.00;-1.00;18893;287;7505045;-33
2023/04/09 09:57:43;;;;;;;36.70;17.80;;;;;;;-128.00;-1.00;-1.00;18892;339;7505572;-38
2023/04/09 10:00:11;;;;;;;49.60;25.50;;;;;;;-128.00;-1.00;-1.00;18479;295;7506200;-39
2023/04/09 10:02:42;;;;;;;42.30;23.00;;;;;;;-128.00;-1.00;-1.00;18492;343;7504755;-34
2023/04/09 10:05:08;;;;;;;40.50;24.30;;;;;;;-128.00;-1.00;-1.00;18482;346;7504560;-37
2023/04/09 10:07:33;;;;;;;79.40;30.80;;;;;;;-128.00;-1.00;-1.00;18467;283;7504512;-33
2023/04/09 10:10:00;;;;;;;60.20;29.10;;;;;;;-128.00;-1.00;-1.00;18889;347;7505018;-37
2023/04/09 10:12:26;;;;;;;62.20;22.30;;;;;;;-128.00;-1.00;-1.00;18917;288;7504578;-35
2023/04/09 10:14:52;;;;;;;171.00;54.20;;;;;;;-128.00;-1.00;-1.00;18898;294;7504826;-34
2023/04/09 10:17:20;;;;;;;97.00;32.70;;;;;;;-128.00;-1.00;-1.00;18863;346;7505036;-34
2023/04/09 10:19:58;;;;;;;58.90;25.60;;;;;;;-128.00;-1.00;-1.00;18481;294;7504241;-39
2023/04/09 10:22:25;;;;;;;125.10;40.40;;;;;;;-128.00;-1.00;-1.00;18496;339;7504534;-33
2023/04/09 10:24:52;;;;;;;56.20;24.20;;;;;;;-128.00;-1.00;-1.00;18503;306;7504545;-34
2023/04/09 10:27:18;;;;;;;107.30;42.50;;;;;;;-128.00;-1.00;-1.00;18896;336;7504750;-37
2023/04/09 10:29:46;;;;;;;65.10;30.80;;;;;;;-128.00;-1.00;-1.00;18873;294;7504925;-36
2023/04/09 10:32:19;;;;;;;48.50;25.50;;;;;;;-128.00;-1.00;-1.00;18471;294;7506068;-33
2023/04/09 10:34:45;;;;;;;52.10;23.60;;;;;;;-128.00;-1.00;-1.00;18474;294;7504480;-37
2023/04/09 10:37:15;;;;;;;57.90;29.40;;;;;;;-128.00;-1.00;-1.00;18466;294;7507038;-36
2023/04/09 10:39:46;;;;;;;118.10;46.20;;;;;;;-128.00;-1.00;-1.00;18489;294;7506333;-33
2023/04/09 10:42:19;;;;;;;93.80;34.30;;;;;;;-128.00;-1.00;-1.00;18500;295;7505523;-37
2023/04/09 10:44:44;;;;;;;144.10;43.00;;;;;;;-128.00;-1.00;-1.00;18457;296;7504708;-33
2023/04/09 10:47:11;;;;;;;52.50;27.30;;;;;;;-128.00;-1.00;-1.00;18497;288;7504381;-33
2023/04/09 10:49:39;;;;;;;46.10;25.80;;;;;;;-128.00;-1.00;-1.00;18474;294;7504649;-33
2023/04/09 10:52:07;;;;;;;46.20;21.50;;;;;;;-128.00;-1.00;-1.00;18476;294;7506260;-32
2023/04/09 10:54:37;;;;;;;46.20;27.80;;;;;;;-128.00;-1.00;-1.00;18487;294;7504284;-35
2023/04/09 10:57:19;;;;;;;43.40;23.40;;;;;;;-128.00;-1.00;-1.00;18479;295;7506068;-33
2023/04/09 10:59:50;;;;;;;50.60;22.20;;;;;;;-128.00;-1.00;-1.00;18464;295;7505976;-33
2023/04/09 11:02:40;;;;;;;41.90;22.20;;;;;;;-128.00;-1.00;-1.00;18491;294;7504535;-36
2023/04/09 11:45:40;;;;;;;48.20;27.00;;;;;;;-100.94;19.20;20040.76;19546;295;8045313;-33
2023/04/09 11:48:06;;;;;;;45.20;21.20;;;;;;;-128.00;-1.00;-1.00;18075;298;7504352;-35
2023/04/09 11:50:32;;;;;;;47.20;23.00;;;;;;;-128.00;-1.00;-1.00;18488;295;7504600;-34
2023/04/09 11:52:58;;;;;;;45.10;25.80;;;;;;;-128.00;-1.00;-1.00;18485;295;7504505;-32
2023/04/09 11:55:25;;;;;;;53.90;27.90;;;;;;;-128.00;-1.00;-1.00;18498;295;7505095;-35
2023/04/09 11:57:52;;;;;;;41.30;25.50;;;;;;;-128.00;-1.00;-1.00;18495;288;7505055;-35
2023/04/09 12:00:18;;;;;;;42.30;23.60;;;;;;;-128.00;-1.00;-1.00;18466;319;7506402;-33
2023/04/09 12:02:45;;;;;;;44.80;25.60;;;;;;;-128.00;-1.00;-1.00;18475;300;7504617;-33
2023/04/09 12:05:19;;;;;;;41.80;22.50;;;;;;;-128.00;-1.00;-1.00;18486;295;7504715;-36
2023/04/09 12:07:45;;;;;;;36.10;21.80;;;;;;;-128.00;-1.00;-1.00;18483;287;7504728;-36
2023/04/09 12:10:11;;;;;;;40.10;23.70;;;;;;;-128.00;-1.00;-1.00;18492;288;7506877;-36
2023/04/09 12:12:41;;;;;;;43.90;27.80;;;;;;;-128.00;-1.00;-1.00;18477;295;7504575;-34
2023/04/09 12:15:12;;;;;;;36.70;22.90;;;;;;;-128.00;-1.00;-1.00;18501;307;7506186;-35
2023/04/09 12:17:37;;;;;;;40.80;24.70;;;;;;;-128.00;-1.00;-1.00;18516;295;7504377;-32
2023/04/09 12:20:05;;;;;;;41.90;23.90;;;;;;;-128.00;-1.00;-1.00;18464;297;7504394;-32
2023/04/09 12:22:31;;;;;;;41.40;24.70;;;;;;;-128.00;-1.00;-1.00;18456;289;7505947;-32
2023/04/09 12:24:57;;;;;;;48.30;29.20;;;;;;;-128.00;-1.00;-1.00;18886;343;7504820;-36
2023/04/09 12:27:23;;;;;;;50.80;27.90;;;;;;;-128.00;-1.00;-1.00;18859;295;7504688;-36
2023/04/09 12:29:49;;;;;;;34.90;18.80;;;;;;;-128.00;-1.00;-1.00;18877;295;7504857;-36
2023/04/09 12:32:15;;;;;;;45.50;26.90;;;;;;;-128.00;-1.00;-1.00;18868;295;7504927;-36
2023/04/09 12:34:42;;;;;;;48.50;28.20;;;;;;;-128.00;-1.00;-1.00;18849;298;7504374;-36